sensor_id;sensor_type;location;lat;lon;timestamp;temperature;humidity
827;DHT22;395;48.132;11.608;2022-07-10T00:00:29;21.20;1.00
827;DHT22;395;48.132;11.608;2022-07-10T00:02:55;21.20;1.00
827;DHT22;395;48.132;11.608;2022-07-10T00:05:21;21.20;1.00
827;DHT22;395;48.132;11.608;2022-07-10T00:07:48;21.10;1.00
827;DHT22;395;48.132;11.608;2022-07-10T00:10:15;21.10;1.00
827;DHT22;395;48.132;11.608;2022-07-10T00:12:41;21.10;1.00
827;DHT22;395;48.132;11.608;2022-07-10T00:15:07;21.00;1.00
827;DHT22;395;48.132;11.608;2022-07-10T00:17:33;21.00;1.00
827;DHT22;395;48.132;11.608;2022-07-10T00:20:00;20.90;1.00
827;DHT22;395;48.132;11.608;2022-07-10T00:22:25;21.00;1.00
827;DHT22;395;48.132;11.608;2022-07-10T00:24:51;20.90;1.00
827;DHT22;395;48.132;11.608;2022-07-10T00:27:18;20.90;1.00
827;DHT22;395;48.132;11.608;2022-07-10T00:29:44;21.00;1.00
827;DHT22;395;48.132;11.608;2022-07-10T00:32:10;20.80;1.00
827;DHT22;395;48.132;11.608;2022-07-10T00:34:36;20.70;1.00
827;DHT22;395;48.132;11.608;2022-07-10T00:37:03;20.60;1.00
827;DHT22;395;48.132;11.608;2022-07-10T00:39:29;20.60;1.00
827;DHT22;395;48.132;11.608;2022-07-10T00:41:55;20.40;2.70
827;DHT22;395;48.132;11.608;2022-07-10T00:44:30;20.40;3.30
827;DHT22;395;48.132;11.608;2022-07-10T00:46:56;20.30;4.30
827;DHT22;395;48.132;11.608;2022-07-10T00:49:21;20.30;4.50
827;DHT22;395;48.132;11.608;2022-07-10T00:51:47;20.10;5.20
827;DHT22;395;48.132;11.608;2022-07-10T00:54:13;20.00;5.40
827;DHT22;395;48.132;11.608;2022-07-10T00:56:39;20.00;5.70
827;DHT22;395;48.132;11.608;2022-07-10T00:59:05;19.90;6.30
827;DHT22;395;48.132;11.608;2022-07-10T01:01:32;19.50;8.70
827;DHT22;395;48.132;11.608;2022-07-10T01:03:58;19.40;10.00
827;DHT22;395;48.132;11.608;2022-07-10T01:06:24;19.20;11.10
827;DHT22;395;48.132;11.608;2022-07-10T01:08:49;19.20;12.60
827;DHT22;395;48.132;11.608;2022-07-10T01:11:15;19.40;12.70
827;DHT22;395;48.132;11.608;2022-07-10T01:13:43;19.40;11.30
827;DHT22;395;48.132;11.608;2022-07-10T01:16:09;19.40;11.30
827;DHT22;395;48.132;11.608;2022-07-10T01:18:35;19.40;11.90
827;DHT22;395;48.132;11.608;2022-07-10T01:21:01;19.50;12.40
827;DHT22;395;48.132;11.608;2022-07-10T01:23:26;19.40;12.30
827;DHT22;395;48.132;11.608;2022-07-10T01:25:52;19.40;11.90
827;DHT22;395;48.132;11.608;2022-07-10T01:28:20;19.40;11.30
827;DHT22;395;48.132;11.608;2022-07-10T01:30:46;19.20;11.20
827;DHT22;395;48.132;11.608;2022-07-10T01:33:11;19.20;11.90
827;DHT22;395;48.132;11.608;2022-07-10T01:35:37;19.20;12.40
827;DHT22;395;48.132;11.608;2022-07-10T01:38:04;18.90;12.50
827;DHT22;395;48.132;11.608;2022-07-10T01:40:30;18.80;13.60
827;DHT22;395;48.132;11.608;2022-07-10T01:42:55;18.90;13.90
827;DHT22;395;48.132;11.608;2022-07-10T01:45:21;18.90;13.90
827;DHT22;395;48.132;11.608;2022-07-10T01:47:47;19.00;14.00
827;DHT22;395;48.132;11.608;2022-07-10T01:50:12;19.10;13.20
827;DHT22;395;48.132;11.608;2022-07-10T01:52:38;19.10;13.10
827;DHT22;395;48.132;11.608;2022-07-10T01:55:05;19.10;13.80
827;DHT22;395;48.132;11.608;2022-07-10T01:57:31;19.10;14.80
827;DHT22;395;48.132;11.608;2022-07-10T01:59:56;19.10;13.90
827;DHT22;395;48.132;11.608;2022-07-10T02:02:22;19.20;14.10
827;DHT22;395;48.132;11.608;2022-07-10T02:04:48;19.20;14.00
827;DHT22;395;48.132;11.608;2022-07-10T02:07:15;19.20;14.40
827;DHT22;395;48.132;11.608;2022-07-10T02:09:42;19.20;13.60
827;DHT22;395;48.132;11.608;2022-07-10T02:12:13;19.20;13.00
827;DHT22;395;48.132;11.608;2022-07-10T02:14:40;19.20;13.00
827;DHT22;395;48.132;11.608;2022-07-10T02:17:06;19.20;13.80
827;DHT22;395;48.132;11.608;2022-07-10T02:19:32;19.30;14.20
827;DHT22;395;48.132;11.608;2022-07-10T02:21:58;19.30;14.20
827;DHT22;395;48.132;11.608;2022-07-10T02:24:24;19.20;14.40
827;DHT22;395;48.132;11.608;2022-07-10T02:26:50;19.30;14.70
827;DHT22;395;48.132;11.608;2022-07-10T02:29:16;19.30;14.30
827;DHT22;395;48.132;11.608;2022-07-10T02:31:43;19.30;14.60
827;DHT22;395;48.132;11.608;2022-07-10T02:34:10;19.30;15.00
827;DHT22;395;48.132;11.608;2022-07-10T02:36:37;19.30;14.10
827;DHT22;395;48.132;11.608;2022-07-10T02:39:04;19.30;13.90
827;DHT22;395;48.132;11.608;2022-07-10T02:41:30;19.30;15.20
827;DHT22;395;48.132;11.608;2022-07-10T02:43:56;19.30;14.10
827;DHT22;395;48.132;11.608;2022-07-10T02:46:22;19.20;14.20
827;DHT22;395;48.132;11.608;2022-07-10T02:48:47;19.20;14.40
827;DHT22;395;48.132;11.608;2022-07-10T02:51:13;19.20;14.20
827;DHT22;395;48.132;11.608;2022-07-10T02:53:39;19.20;13.90
827;DHT22;395;48.132;11.608;2022-07-10T02:56:05;19.20;14.20
827;DHT22;395;48.132;11.608;2022-07-10T02:58:32;19.20;15.10
827;DHT22;395;48.132;11.608;2022-07-10T03:00:57;19.20;16.20
827;DHT22;395;48.132;11.608;2022-07-10T03:03:23;19.20;16.00
827;DHT22;395;48.132;11.608;2022-07-10T03:05:48;19.20;15.70
827;DHT22;395;48.132;11.608;2022-07-10T03:08:14;19.10;15.60
827;DHT22;395;48.132;11.608;2022-07-10T03:10:40;19.10;16.10
827;DHT22;395;48.132;11.608;2022-07-10T03:13:06;19.10;16.50
827;DHT22;395;48.132;11.608;2022-07-10T03:15:32;19.10;15.70
827;DHT22;395;48.132;11.608;2022-07-10T03:17:58;19.10;14.60
827;DHT22;395;48.132;11.608;2022-07-10T03:20:24;19.00;16.00
827;DHT22;395;48.132;11.608;2022-07-10T03:22:49;19.00;16.00
827;DHT22;395;48.132;11.608;2022-07-10T03:25:15;19.00;16.60
827;DHT22;395;48.132;11.608;2022-07-10T03:27:41;19.00;16.50
827;DHT22;395;48.132;11.608;2022-07-10T03:30:07;18.90;16.40
827;DHT22;395;48.132;11.608;2022-07-10T03:32:33;18.90;17.10
827;DHT22;395;48.132;11.608;2022-07-10T03:34:59;18.90;17.10
827;DHT22;395;48.132;11.608;2022-07-10T03:37:25;18.90;17.10
827;DHT22;395;48.132;11.608;2022-07-10T03:39:50;18.90;17.90
827;DHT22;395;48.132;11.608;2022-07-10T03:42:16;18.90;18.00
827;DHT22;395;48.132;11.608;2022-07-10T03:44:42;18.80;17.60
827;DHT22;395;48.132;11.608;2022-07-10T03:47:08;18.80;18.60
827;DHT22;395;48.132;11.608;2022-07-10T03:49:33;18.80;17.70
827;DHT22;395;48.132;11.608;2022-07-10T03:52:03;18.80;18.10
827;DHT22;395;48.132;11.608;2022-07-10T03:54:29;18.70;18.30
827;DHT22;395;48.132;11.608;2022-07-10T03:56:56;18.70;18.30
827;DHT22;395;48.132;11.608;2022-07-10T03:59:40;18.70;18.30
827;DHT22;395;48.132;11.608;2022-07-10T04:02:06;18.70;18.50
827;DHT22;395;48.132;11.608;2022-07-10T04:04:32;18.70;18.70
827;DHT22;395;48.132;11.608;2022-07-10T04:06:58;18.70;18.30
827;DHT22;395;48.132;11.608;2022-07-10T04:09:23;18.60;19.70
827;DHT22;395;48.132;11.608;2022-07-10T04:11:49;18.70;18.50
827;DHT22;395;48.132;11.608;2022-07-10T04:14:14;18.60;19.50
827;DHT22;395;48.132;11.608;2022-07-10T04:16:40;18.60;18.80
827;DHT22;395;48.132;11.608;2022-07-10T04:19:06;18.70;18.80
827;DHT22;395;48.132;11.608;2022-07-10T04:21:31;18.70;18.60
827;DHT22;395;48.132;11.608;2022-07-10T04:23:57;18.70;19.20
827;DHT22;395;48.132;11.608;2022-07-10T04:26:23;18.70;18.80
827;DHT22;395;48.132;11.608;2022-07-10T04:28:49;18.70;18.20
827;DHT22;395;48.132;11.608;2022-07-10T04:31:15;18.70;19.30
827;DHT22;395;48.132;11.608;2022-07-10T04:33:40;18.70;18.90
827;DHT22;395;48.132;11.608;2022-07-10T04:36:06;18.70;17.50
827;DHT22;395;48.132;11.608;2022-07-10T04:38:32;18.80;18.30
827;DHT22;395;48.132;11.608;2022-07-10T04:40:58;18.80;18.00
827;DHT22;395;48.132;11.608;2022-07-10T04:43:24;18.80;17.60
827;DHT22;395;48.132;11.608;2022-07-10T04:45:49;18.80;17.00
827;DHT22;395;48.132;11.608;2022-07-10T04:48:15;18.80;17.00
827;DHT22;395;48.132;11.608;2022-07-10T04:50:40;18.80;17.00
827;DHT22;395;48.132;11.608;2022-07-10T04:53:06;18.70;16.90
827;DHT22;395;48.132;11.608;2022-07-10T04:55:32;18.70;16.90
827;DHT22;395;48.132;11.608;2022-07-10T04:57:58;18.70;16.10
827;DHT22;395;48.132;11.608;2022-07-10T05:00:24;18.60;16.00
827;DHT22;395;48.132;11.608;2022-07-10T05:02:49;18.60;16.30
827;DHT22;395;48.132;11.608;2022-07-10T05:05:15;18.50;16.80
827;DHT22;395;48.132;11.608;2022-07-10T05:07:41;18.50;16.80
827;DHT22;395;48.132;11.608;2022-07-10T05:10:07;18.40;16.70
827;DHT22;395;48.132;11.608;2022-07-10T05:12:33;18.40;16.70
827;DHT22;395;48.132;11.608;2022-07-10T05:14:59;18.20;17.10
827;DHT22;395;48.132;11.608;2022-07-10T05:17:27;18.20;17.80
827;DHT22;395;48.132;11.608;2022-07-10T05:19:57;18.20;18.60
827;DHT22;395;48.132;11.608;2022-07-10T05:22:24;18.20;17.90
827;DHT22;395;48.132;11.608;2022-07-10T05:24:50;18.20;18.30
827;DHT22;395;48.132;11.608;2022-07-10T05:27:16;18.10;17.00
827;DHT22;395;48.132;11.608;2022-07-10T05:29:46;18.10;18.30
827;DHT22;395;48.132;11.608;2022-07-10T05:32:12;18.00;17.90
827;DHT22;395;48.132;11.608;2022-07-10T05:34:37;18.10;18.20
827;DHT22;395;48.132;11.608;2022-07-10T05:37:04;18.20;18.20
827;DHT22;395;48.132;11.608;2022-07-10T05:39:30;18.10;16.50
827;DHT22;395;48.132;11.608;2022-07-10T05:41:55;18.20;16.60
827;DHT22;395;48.132;11.608;2022-07-10T05:44:23;18.10;16.50
827;DHT22;395;48.132;11.608;2022-07-10T05:46:49;18.00;17.80
827;DHT22;395;48.132;11.608;2022-07-10T05:49:14;18.10;16.70
827;DHT22;395;48.132;11.608;2022-07-10T05:51:40;18.00;17.00
827;DHT22;395;48.132;11.608;2022-07-10T05:54:05;18.00;16.70
827;DHT22;395;48.132;11.608;2022-07-10T05:56:31;18.10;16.50
827;DHT22;395;48.132;11.608;2022-07-10T05:58:57;18.10;16.10
827;DHT22;395;48.132;11.608;2022-07-10T06:01:23;18.10;15.10
827;DHT22;395;48.132;11.608;2022-07-10T06:03:49;18.20;15.10
827;DHT22;395;48.132;11.608;2022-07-10T06:06:15;18.20;14.70
827;DHT22;395;48.132;11.608;2022-07-10T06:08:41;18.30;16.00
827;DHT22;395;48.132;11.608;2022-07-10T06:11:07;18.40;15.40
827;DHT22;395;48.132;11.608;2022-07-10T06:13:33;18.40;14.30
827;DHT22;395;48.132;11.608;2022-07-10T06:15:58;18.40;14.50
827;DHT22;395;48.132;11.608;2022-07-10T06:18:24;18.60;14.20
827;DHT22;395;48.132;11.608;2022-07-10T06:20:50;18.60;13.20
827;DHT22;395;48.132;11.608;2022-07-10T06:23:15;18.70;12.70
827;DHT22;395;48.132;11.608;2022-07-10T06:25:41;18.60;12.30
827;DHT22;395;48.132;11.608;2022-07-10T06:28:06;18.70;11.40
827;DHT22;395;48.132;11.608;2022-07-10T06:30:32;18.70;11.90
827;DHT22;395;48.132;11.608;2022-07-10T06:32:58;18.80;11.60
827;DHT22;395;48.132;11.608;2022-07-10T06:35:23;18.80;11.30
827;DHT22;395;48.132;11.608;2022-07-10T06:37:49;18.80;10.70
827;DHT22;395;48.132;11.608;2022-07-10T06:40:15;18.80;10.50
827;DHT22;395;48.132;11.608;2022-07-10T06:42:40;18.80;10.80
827;DHT22;395;48.132;11.608;2022-07-10T06:45:06;18.60;11.20
827;DHT22;395;48.132;11.608;2022-07-10T06:47:32;18.60;12.00
827;DHT22;395;48.132;11.608;2022-07-10T06:50:17;18.70;12.00
827;DHT22;395;48.132;11.608;2022-07-10T06:52:43;18.60;12.10
827;DHT22;395;48.132;11.608;2022-07-10T06:55:09;18.70;12.70
827;DHT22;395;48.132;11.608;2022-07-10T06:57:34;18.70;11.80
827;DHT22;395;48.132;11.608;2022-07-10T07:00:01;18.60;12.90
827;DHT22;395;48.132;11.608;2022-07-10T07:02:26;18.60;12.10
827;DHT22;395;48.132;11.608;2022-07-10T07:04:52;18.70;12.50
827;DHT22;395;48.132;11.608;2022-07-10T07:07:18;18.70;11.70
827;DHT22;395;48.132;11.608;2022-07-10T07:09:43;18.70;11.40
827;DHT22;395;48.132;11.608;2022-07-10T07:12:10;18.80;11.30
827;DHT22;395;48.132;11.608;2022-07-10T07:14:36;18.80;10.80
827;DHT22;395;48.132;11.608;2022-07-10T07:17:03;18.90;10.50
827;DHT22;395;48.132;11.608;2022-07-10T07:19:32;19.00;10.60
827;DHT22;395;48.132;11.608;2022-07-10T07:22:19;19.10;10.30
827;DHT22;395;48.132;11.608;2022-07-10T07:25:05;19.20;9.80
827;DHT22;395;48.132;11.608;2022-07-10T07:27:31;19.20;9.70
827;DHT22;395;48.132;11.608;2022-07-10T07:30:00;19.20;9.70
827;DHT22;395;48.132;11.608;2022-07-10T07:32:26;19.30;9.40
827;DHT22;395;48.132;11.608;2022-07-10T07:34:51;19.20;9.10
827;DHT22;395;48.132;11.608;2022-07-10T07:37:17;19.20;8.70
827;DHT22;395;48.132;11.608;2022-07-10T07:39:43;19.10;8.60
827;DHT22;395;48.132;11.608;2022-07-10T07:42:08;18.80;9.70
827;DHT22;395;48.132;11.608;2022-07-10T07:44:34;18.80;9.90
827;DHT22;395;48.132;11.608;2022-07-10T07:46:59;18.70;10.30
827;DHT22;395;48.132;11.608;2022-07-10T07:49:25;18.70;10.10
827;DHT22;395;48.132;11.608;2022-07-10T07:51:51;18.80;10.50
827;DHT22;395;48.132;11.608;2022-07-10T07:54:16;18.80;10.10
827;DHT22;395;48.132;11.608;2022-07-10T07:56:42;19.00;9.70
827;DHT22;395;48.132;11.608;2022-07-10T07:59:07;19.10;7.10
827;DHT22;395;48.132;11.608;2022-07-10T08:01:33;19.10;7.70
827;DHT22;395;48.132;11.608;2022-07-10T08:03:59;19.20;6.70
827;DHT22;395;48.132;11.608;2022-07-10T08:06:25;19.20;6.30
827;DHT22;395;48.132;11.608;2022-07-10T08:08:50;19.30;7.00
827;DHT22;395;48.132;11.608;2022-07-10T08:11:16;19.30;6.30
827;DHT22;395;48.132;11.608;2022-07-10T08:13:42;19.40;7.00
827;DHT22;395;48.132;11.608;2022-07-10T08:16:08;19.50;6.00
827;DHT22;395;48.132;11.608;2022-07-10T08:18:34;19.50;5.70
827;DHT22;395;48.132;11.608;2022-07-10T08:21:00;19.50;5.90
827;DHT22;395;48.132;11.608;2022-07-10T08:23:26;19.60;5.90
827;DHT22;395;48.132;11.608;2022-07-10T08:25:51;19.60;5.10
827;DHT22;395;48.132;11.608;2022-07-10T08:28:17;19.70;4.80
827;DHT22;395;48.132;11.608;2022-07-10T08:30:43;19.70;3.70
827;DHT22;395;48.132;11.608;2022-07-10T08:33:08;19.60;3.40
827;DHT22;395;48.132;11.608;2022-07-10T08:35:34;19.60;2.40
827;DHT22;395;48.132;11.608;2022-07-10T08:38:00;19.60;2.30
827;DHT22;395;48.132;11.608;2022-07-10T08:40:34;19.70;2.50
827;DHT22;395;48.132;11.608;2022-07-10T08:43:01;19.80;1.90
827;DHT22;395;48.132;11.608;2022-07-10T08:45:28;19.80;1.60
827;DHT22;395;48.132;11.608;2022-07-10T08:47:56;19.80;1.70
827;DHT22;395;48.132;11.608;2022-07-10T08:50:26;19.80;2.50
827;DHT22;395;48.132;11.608;2022-07-10T08:55:25;19.50;1.50
827;DHT22;395;48.132;11.608;2022-07-10T08:57:51;19.40;2.30
827;DHT22;395;48.132;11.608;2022-07-10T09:00:18;19.50;2.30
827;DHT22;395;48.132;11.608;2022-07-10T09:02:43;19.70;2.50
827;DHT22;395;48.132;11.608;2022-07-10T09:05:09;19.80;1.00
827;DHT22;395;48.132;11.608;2022-07-10T09:07:36;19.90;1.00
827;DHT22;395;48.132;11.608;2022-07-10T09:10:06;20.00;1.00
827;DHT22;395;48.132;11.608;2022-07-10T09:15:18;19.70;1.00
827;DHT22;395;48.132;11.608;2022-07-10T09:20:27;19.70;1.00
827;DHT22;395;48.132;11.608;2022-07-10T09:22:52;19.50;1.00
827;DHT22;395;48.132;11.608;2022-07-10T09:25:18;19.60;1.00
827;DHT22;395;48.132;11.608;2022-07-10T09:27:53;19.70;1.00
827;DHT22;395;48.132;11.608;2022-07-10T09:30:32;19.80;1.00
827;DHT22;395;48.132;11.608;2022-07-10T09:43:53;19.90;1.00
827;DHT22;395;48.132;11.608;2022-07-10T09:46:25;19.80;1.00
827;DHT22;395;48.132;11.608;2022-07-10T09:51:37;19.60;1.00
827;DHT22;395;48.132;11.608;2022-07-10T09:54:05;19.70;1.00
827;DHT22;395;48.132;11.608;2022-07-10T09:56:39;19.60;1.00
827;DHT22;395;48.132;11.608;2022-07-10T09:59:10;19.60;1.00
827;DHT22;395;48.132;11.608;2022-07-10T10:01:36;19.60;1.00
827;DHT22;395;48.132;11.608;2022-07-10T10:04:04;19.70;1.00
827;DHT22;395;48.132;11.608;2022-07-10T10:06:30;19.70;1.00
827;DHT22;395;48.132;11.608;2022-07-10T10:09:03;19.90;1.00
827;DHT22;395;48.132;11.608;2022-07-10T10:11:32;19.90;1.00
827;DHT22;395;48.132;11.608;2022-07-10T10:14:01;19.90;1.00
827;DHT22;395;48.132;11.608;2022-07-10T10:16:27;19.90;1.00
827;DHT22;395;48.132;11.608;2022-07-10T10:18:55;20.00;1.00
827;DHT22;395;48.132;11.608;2022-07-10T10:21:39;20.10;1.00
827;DHT22;395;48.132;11.608;2022-07-10T10:24:06;20.30;1.00
827;DHT22;395;48.132;11.608;2022-07-10T10:26:32;20.30;1.00
827;DHT22;395;48.132;11.608;2022-07-10T10:29:00;20.30;1.00
827;DHT22;395;48.132;11.608;2022-07-10T10:31:27;20.30;1.00
827;DHT22;395;48.132;11.608;2022-07-10T10:33:55;20.40;1.00
827;DHT22;395;48.132;11.608;2022-07-10T10:36:47;20.50;1.00
827;DHT22;395;48.132;11.608;2022-07-10T10:39:17;20.50;1.00
827;DHT22;395;48.132;11.608;2022-07-10T10:41:48;20.60;1.00
827;DHT22;395;48.132;11.608;2022-07-10T10:47:00;20.30;1.00
827;DHT22;395;48.132;11.608;2022-07-10T10:49:53;20.10;1.00
827;DHT22;395;48.132;11.608;2022-07-10T10:52:20;20.20;1.00
827;DHT22;395;48.132;11.608;2022-07-10T10:59:57;20.20;1.00
827;DHT22;395;48.132;11.608;2022-07-10T11:02:31;20.20;1.00
827;DHT22;395;48.132;11.608;2022-07-10T11:07:57;20.10;1.00
827;DHT22;395;48.132;11.608;2022-07-10T11:10:42;20.20;1.00
827;DHT22;395;48.132;11.608;2022-07-10T11:13:16;20.30;1.00
827;DHT22;395;48.132;11.608;2022-07-10T11:15:46;20.20;1.00
827;DHT22;395;48.132;11.608;2022-07-10T11:18:17;20.50;1.00
827;DHT22;395;48.132;11.608;2022-07-10T11:20:48;20.70;1.00
827;DHT22;395;48.132;11.608;2022-07-10T11:25:52;20.80;1.00
827;DHT22;395;48.132;11.608;2022-07-10T11:29:05;20.90;1.00
827;DHT22;395;48.132;11.608;2022-07-10T11:31:32;21.00;1.00
827;DHT22;395;48.132;11.608;2022-07-10T11:34:03;21.10;1.00
827;DHT22;395;48.132;11.608;2022-07-10T11:36:29;21.20;1.00
827;DHT22;395;48.132;11.608;2022-07-10T11:39:02;21.20;1.00
827;DHT22;395;48.132;11.608;2022-07-10T11:41:31;21.10;1.00
827;DHT22;395;48.132;11.608;2022-07-10T11:43:59;21.00;1.00
827;DHT22;395;48.132;11.608;2022-07-10T11:46:27;21.00;1.00
827;DHT22;395;48.132;11.608;2022-07-10T11:48:54;21.00;1.00
827;DHT22;395;48.132;11.608;2022-07-10T11:51:34;20.90;1.00
827;DHT22;395;48.132;11.608;2022-07-10T11:54:07;21.10;1.00
827;DHT22;395;48.132;11.608;2022-07-10T11:56:39;21.10;1.00
827;DHT22;395;48.132;11.608;2022-07-10T11:59:10;21.10;1.00
827;DHT22;395;48.132;11.608;2022-07-10T12:01:47;20.90;1.00
827;DHT22;395;48.132;11.608;2022-07-10T12:04:19;20.90;1.00
827;DHT22;395;48.132;11.608;2022-07-10T12:06:46;20.90;1.00
827;DHT22;395;48.132;11.608;2022-07-10T12:09:14;20.90;1.00
827;DHT22;395;48.132;11.608;2022-07-10T12:11:45;21.10;1.00
827;DHT22;395;48.132;11.608;2022-07-10T12:14:22;21.30;1.00
827;DHT22;395;48.132;11.608;2022-07-10T12:16:50;21.40;1.00
827;DHT22;395;48.132;11.608;2022-07-10T12:19:18;21.50;1.00
827;DHT22;395;48.132;11.608;2022-07-10T12:21:48;21.60;1.00
827;DHT22;395;48.132;11.608;2022-07-10T12:24:16;21.70;1.00
827;DHT22;395;48.132;11.608;2022-07-10T12:26:43;21.70;1.00
827;DHT22;395;48.132;11.608;2022-07-10T12:31:44;21.70;1.00
827;DHT22;395;48.132;11.608;2022-07-10T12:34:11;21.80;1.00
827;DHT22;395;48.132;11.608;2022-07-10T12:36:42;21.60;1.00
827;DHT22;395;48.132;11.608;2022-07-10T12:39:09;21.50;1.00
827;DHT22;395;48.132;11.608;2022-07-10T12:41:52;21.60;1.00
827;DHT22;395;48.132;11.608;2022-07-10T12:44:34;21.60;1.00
827;DHT22;395;48.132;11.608;2022-07-10T12:47:10;21.70;1.00
827;DHT22;395;48.132;11.608;2022-07-10T12:49:55;21.80;1.00
827;DHT22;395;48.132;11.608;2022-07-10T12:52:33;22.10;1.00
827;DHT22;395;48.132;11.608;2022-07-10T12:57:57;21.90;1.00
827;DHT22;395;48.132;11.608;2022-07-10T13:00:31;21.80;1.00
827;DHT22;395;48.132;11.608;2022-07-10T13:05:26;21.80;1.00
827;DHT22;395;48.132;11.608;2022-07-10T13:07:52;22.00;1.00
827;DHT22;395;48.132;11.608;2022-07-10T13:10:17;22.30;1.00
827;DHT22;395;48.132;11.608;2022-07-10T13:12:43;22.30;1.00
827;DHT22;395;48.132;11.608;2022-07-10T13:15:09;22.40;1.00
827;DHT22;395;48.132;11.608;2022-07-10T13:17:43;22.50;1.00
827;DHT22;395;48.132;11.608;2022-07-10T13:20:09;22.60;1.00
827;DHT22;395;48.132;11.608;2022-07-10T13:22:35;22.20;1.00
827;DHT22;395;48.132;11.608;2022-07-10T13:25:00;22.20;1.00
827;DHT22;395;48.132;11.608;2022-07-10T13:27:26;22.20;1.00
827;DHT22;395;48.132;11.608;2022-07-10T13:29:52;22.00;1.00
827;DHT22;395;48.132;11.608;2022-07-10T13:32:18;22.10;1.00
827;DHT22;395;48.132;11.608;2022-07-10T13:34:44;21.80;1.00
827;DHT22;395;48.132;11.608;2022-07-10T13:37:09;22.00;1.00
827;DHT22;395;48.132;11.608;2022-07-10T13:39:38;22.10;1.00
827;DHT22;395;48.132;11.608;2022-07-10T13:42:04;22.20;1.00
827;DHT22;395;48.132;11.608;2022-07-10T13:44:30;21.70;1.00
827;DHT22;395;48.132;11.608;2022-07-10T13:46:56;21.60;1.00
827;DHT22;395;48.132;11.608;2022-07-10T13:49:21;21.20;1.00
827;DHT22;395;48.132;11.608;2022-07-10T13:51:48;21.60;1.00
827;DHT22;395;48.132;11.608;2022-07-10T13:54:14;21.90;1.00
827;DHT22;395;48.132;11.608;2022-07-10T13:56:40;22.10;1.00
827;DHT22;395;48.132;11.608;2022-07-10T13:59:08;22.30;1.00
827;DHT22;395;48.132;11.608;2022-07-10T14:01:34;22.40;1.00
827;DHT22;395;48.132;11.608;2022-07-10T14:04:00;22.20;1.00
827;DHT22;395;48.132;11.608;2022-07-10T14:06:26;22.20;1.00
827;DHT22;395;48.132;11.608;2022-07-10T14:08:52;22.20;1.00
827;DHT22;395;48.132;11.608;2022-07-10T14:11:17;22.30;1.00
827;DHT22;395;48.132;11.608;2022-07-10T14:13:43;22.30;1.00
827;DHT22;395;48.132;11.608;2022-07-10T14:16:09;22.40;1.00
827;DHT22;395;48.132;11.608;2022-07-10T14:18:35;22.40;1.00
827;DHT22;395;48.132;11.608;2022-07-10T14:21:06;22.50;1.00
827;DHT22;395;48.132;11.608;2022-07-10T14:23:35;22.40;1.00
827;DHT22;395;48.132;11.608;2022-07-10T14:26:01;22.60;1.00
827;DHT22;395;48.132;11.608;2022-07-10T14:28:27;22.40;1.00
827;DHT22;395;48.132;11.608;2022-07-10T14:30:53;22.40;1.00
827;DHT22;395;48.132;11.608;2022-07-10T14:33:22;22.40;1.00
827;DHT22;395;48.132;11.608;2022-07-10T14:35:47;22.30;1.00
827;DHT22;395;48.132;11.608;2022-07-10T14:38:13;22.30;1.00
827;DHT22;395;48.132;11.608;2022-07-10T14:40:39;22.40;1.00
827;DHT22;395;48.132;11.608;2022-07-10T14:43:04;22.40;1.00
827;DHT22;395;48.132;11.608;2022-07-10T14:45:30;22.40;1.00
827;DHT22;395;48.132;11.608;2022-07-10T14:47:56;22.30;1.00
827;DHT22;395;48.132;11.608;2022-07-10T14:50:23;22.50;1.00
827;DHT22;395;48.132;11.608;2022-07-10T14:52:48;22.60;1.00
827;DHT22;395;48.132;11.608;2022-07-10T14:55:14;22.80;1.00
827;DHT22;395;48.132;11.608;2022-07-10T14:57:40;22.60;1.00
827;DHT22;395;48.132;11.608;2022-07-10T15:00:06;22.70;1.00
827;DHT22;395;48.132;11.608;2022-07-10T15:02:32;22.90;1.00
827;DHT22;395;48.132;11.608;2022-07-10T15:04:57;23.00;1.00
827;DHT22;395;48.132;11.608;2022-07-10T15:07:23;23.00;1.00
827;DHT22;395;48.132;11.608;2022-07-10T15:09:48;23.10;1.00
827;DHT22;395;48.132;11.608;2022-07-10T15:12:14;23.10;1.00
827;DHT22;395;48.132;11.608;2022-07-10T15:14:40;23.10;1.00
827;DHT22;395;48.132;11.608;2022-07-10T15:17:05;23.30;1.00
827;DHT22;395;48.132;11.608;2022-07-10T15:19:31;23.30;1.00
827;DHT22;395;48.132;11.608;2022-07-10T15:21:57;23.40;1.00
827;DHT22;395;48.132;11.608;2022-07-10T15:24:22;23.50;1.00
827;DHT22;395;48.132;11.608;2022-07-10T15:26:48;23.40;1.00
827;DHT22;395;48.132;11.608;2022-07-10T15:29:15;23.40;1.00
827;DHT22;395;48.132;11.608;2022-07-10T15:31:40;23.40;1.00
827;DHT22;395;48.132;11.608;2022-07-10T15:34:08;23.50;1.00
827;DHT22;395;48.132;11.608;2022-07-10T15:36:34;23.60;1.00
827;DHT22;395;48.132;11.608;2022-07-10T15:39:00;23.60;1.00
827;DHT22;395;48.132;11.608;2022-07-10T15:41:26;23.50;1.00
827;DHT22;395;48.132;11.608;2022-07-10T15:43:52;23.50;1.00
827;DHT22;395;48.132;11.608;2022-07-10T15:46:17;23.40;1.00
827;DHT22;395;48.132;11.608;2022-07-10T15:48:43;23.30;1.00
827;DHT22;395;48.132;11.608;2022-07-10T15:51:10;23.10;1.00
827;DHT22;395;48.132;11.608;2022-07-10T15:53:36;23.00;1.00
827;DHT22;395;48.132;11.608;2022-07-10T15:56:02;23.20;1.00
827;DHT22;395;48.132;11.608;2022-07-10T15:58:28;23.30;1.00
827;DHT22;395;48.132;11.608;2022-07-10T16:00:54;23.30;1.00
827;DHT22;395;48.132;11.608;2022-07-10T16:03:19;23.30;1.00
827;DHT22;395;48.132;11.608;2022-07-10T16:05:45;23.10;1.00
827;DHT22;395;48.132;11.608;2022-07-10T16:08:11;23.10;1.00
827;DHT22;395;48.132;11.608;2022-07-10T16:10:37;23.30;1.00
827;DHT22;395;48.132;11.608;2022-07-10T16:13:02;23.40;1.00
827;DHT22;395;48.132;11.608;2022-07-10T16:15:28;23.30;1.00
827;DHT22;395;48.132;11.608;2022-07-10T16:17:54;23.40;1.00
827;DHT22;395;48.132;11.608;2022-07-10T16:20:20;23.00;1.00
827;DHT22;395;48.132;11.608;2022-07-10T16:22:46;22.90;1.00
827;DHT22;395;48.132;11.608;2022-07-10T16:25:11;23.00;1.00
827;DHT22;395;48.132;11.608;2022-07-10T16:27:55;22.90;1.00
827;DHT22;395;48.132;11.608;2022-07-10T16:30:21;22.80;1.00
827;DHT22;395;48.132;11.608;2022-07-10T16:32:47;22.80;1.00
827;DHT22;395;48.132;11.608;2022-07-10T16:35:13;23.00;1.00
827;DHT22;395;48.132;11.608;2022-07-10T16:37:39;23.10;1.00
827;DHT22;395;48.132;11.608;2022-07-10T16:40:05;23.30;1.00
827;DHT22;395;48.132;11.608;2022-07-10T16:42:31;23.10;1.00
827;DHT22;395;48.132;11.608;2022-07-10T16:44:56;23.30;1.00
827;DHT22;395;48.132;11.608;2022-07-10T16:47:22;23.40;1.00
827;DHT22;395;48.132;11.608;2022-07-10T16:49:49;23.40;1.00
827;DHT22;395;48.132;11.608;2022-07-10T16:52:14;23.60;1.00
827;DHT22;395;48.132;11.608;2022-07-10T16:54:40;23.60;1.00
827;DHT22;395;48.132;11.608;2022-07-10T16:57:06;23.40;1.00
827;DHT22;395;48.132;11.608;2022-07-10T16:59:34;23.10;1.00
827;DHT22;395;48.132;11.608;2022-07-10T17:01:59;23.40;1.00
827;DHT22;395;48.132;11.608;2022-07-10T17:04:25;23.50;1.00
827;DHT22;395;48.132;11.608;2022-07-10T17:07:05;23.40;1.00
827;DHT22;395;48.132;11.608;2022-07-10T17:09:31;23.10;1.00